Allendale, Wyoming
Current Conditions -  °F | °C
As of 10:53 AM on Friday 28 Nov 2014 (Local Time) from KCPR Reporting Station
Clear Clear  
Wind Chill: 10°   Ceiling: Unl
Heat Index: 10°   Visibility: 10mi
Dew Point: -7°   Wind: 16mph
Humidity: 29%   Direction: 210°SSW
Pressure: 29.83"   Gusts: 31mph
Location:  42.84°N, 106.275°W
Report Text: KCPR 281753Z 21014G27KT 10SM CLR 10/M07 A2983 RMK AO2 PK WND 22030/1731 SLP082 T01001072 10100 20044 55009
Loading
Personal Weather Stations






























Interactive Weather Map New forecast layout! Learn more

10-Day Weather Forecast

Advertisements
Track Severe Weather on mobile